Time;durP1;ratioP1;P1;durP2;ratioP2;P2;SDS_P1;SDS_P2;PMS_P1;PMS_P2;Temp;Humidity;BMP_temperature;BMP_pressure;BME280_temperature;BME280_humidity;BME280_pressure;Samples;Min_cycle;Max_cycle;Signal;HPM_P1;HPM_P2
2021/10/19 00:02:26;;;;;;;24.40;22.30;;;12.20;99.90;;;;;;5090831;28;20484;-69
2021/10/19 00:04:54;;;;;;;25.27;22.73;;;12.30;99.90;;;;;;5091454;28;20464;-69
2021/10/19 00:07:21;;;;;;;26.03;23.30;;;12.30;99.90;;;;;;5094025;28;20460;-69
2021/10/19 00:09:47;;;;;;;25.53;22.90;;;12.30;99.90;;;;;;5095066;28;20466;-72
2021/10/19 00:12:16;;;;;;;26.87;23.83;;;12.20;99.90;;;;;;5093404;28;20457;-68
2021/10/19 00:14:43;;;;;;;25.37;23.00;;;12.20;99.90;;;;;;5096973;28;20457;-68
2021/10/19 00:17:10;;;;;;;25.50;23.00;;;12.20;99.90;;;;;;5091633;28;20488;-69
2021/10/19 00:19:37;;;;;;;26.20;23.97;;;12.20;99.90;;;;;;5099822;28;20457;-69
2021/10/19 00:22:04;;;;;;;30.20;25.33;;;12.20;99.90;;;;;;5087954;28;20512;-70
2021/10/19 00:24:31;;;;;;;30.87;27.40;;;12.10;99.90;;;;;;5093302;28;20462;-70
2021/10/19 00:26:58;;;;;;;29.00;26.30;;;12.10;99.90;;;;;;5094658;28;20464;-71
2021/10/19 00:29:27;;;;;;;30.30;27.50;;;12.10;99.90;;;;;;5092265;28;20477;-70
2021/10/19 00:31:54;;;;;;;28.07;25.50;;;12.10;99.90;;;;;;5085506;28;21295;-69
2021/10/19 00:34:21;;;;;;;31.47;28.30;;;12.00;99.90;;;;;;5094227;28;20465;-69
2021/10/19 00:36:48;;;;;;;31.57;28.40;;;12.00;99.90;;;;;;5093859;28;20462;-69
2021/10/19 00:39:15;;;;;;;31.90;29.00;;;12.00;99.90;;;;;;5094305;28;20460;-71
2021/10/19 00:41:42;;;;;;;31.27;28.37;;;12.00;99.90;;;;;;5089826;28;20488;-72
2021/10/19 00:44:10;;;;;;;33.10;29.60;;;12.10;99.90;;;;;;5097647;28;20461;-71
2021/10/19 00:46:40;;;;;;;31.97;29.23;;;12.10;99.90;;;;;;5079673;28;20475;-68
2021/10/19 00:49:07;;;;;;;34.07;30.30;;;12.10;99.90;;;;;;5092184;28;20456;-70
2021/10/19 00:51:35;;;;;;;31.03;27.77;;;12.10;99.90;;;;;;5092350;28;20515;-71
2021/10/19 00:54:02;;;;;;;33.83;30.30;;;12.00;99.90;;;;;;5091839;28;20477;-69
2021/10/19 00:56:30;;;;;;;33.20;29.80;;;12.10;99.90;;;;;;5095205;28;21030;-69
2021/10/19 00:58:57;;;;;;;32.53;28.87;;;12.10;99.90;;;;;;5092932;28;20471;-69
2021/10/19 01:01:25;;;;;;;33.07;30.00;;;12.10;99.90;;;;;;5089140;28;20493;-71
2021/10/19 01:03:53;;;;;;;33.23;30.03;;;12.10;99.90;;;;;;5092819;28;20557;-69
2021/10/19 01:06:20;;;;;;;31.33;28.17;;;12.10;99.90;;;;;;5096828;28;20453;-71
2021/10/19 01:08:48;;;;;;;32.47;29.07;;;12.10;99.90;;;;;;5091684;28;20462;-69
2021/10/19 01:11:14;;;;;;;32.47;29.50;;;12.00;99.90;;;;;;5099490;28;20453;-69
2021/10/19 01:13:41;;;;;;;33.00;29.80;;;12.10;99.90;;;;;;5097212;28;20465;-69
2021/10/19 01:16:10;;;;;;;31.90;28.90;;;12.10;99.90;;;;;;5088979;28;20470;-69
2021/10/19 01:18:38;;;;;;;34.23;30.80;;;12.10;99.90;;;;;;5100064;28;20466;-69
2021/10/19 01:21:09;;;;;;;37.30;33.50;;;12.10;99.90;;;;;;5093880;28;20492;-68
2021/10/19 01:23:36;;;;;;;41.20;36.90;;;12.10;99.90;;;;;;5090365;28;20500;-69
2021/10/19 01:26:07;;;;;;;40.77;36.67;;;12.10;99.90;;;;;;5090625;28;20461;-68
2021/10/19 01:28:36;;;;;;;40.07;35.93;;;12.10;99.90;;;;;;5099841;28;20458;-68
2021/10/19 01:31:05;;;;;;;39.90;34.03;;;12.10;99.90;;;;;;5085407;28;20476;-69
2021/10/19 01:33:33;;;;;;;21.93;20.53;;;12.10;99.90;;;;;;5098475;28;21313;-68
2021/10/19 01:36:00;;;;;;;38.60;35.10;;;12.10;99.90;;;;;;5094768;28;20464;-69
2021/10/19 01:38:29;;;;;;;38.60;35.00;;;12.10;99.90;;;;;;5093222;28;20473;-69
2021/10/19 01:40:58;;;;;;;36.60;32.87;;;12.00;99.90;;;;;;5091074;28;20466;-69
2021/10/19 01:43:27;;;;;;;36.33;32.83;;;12.00;99.90;;;;;;5092139;28;20514;-70
2021/10/19 01:45:56;;;;;;;36.83;33.17;;;12.00;99.90;;;;;;5092508;28;20493;-70
2021/10/19 01:48:23;;;;;;;35.07;31.53;;;12.00;99.90;;;;;;5095820;28;20465;-69
2021/10/19 01:50:50;;;;;;;37.33;33.50;;;12.00;99.90;;;;;;5094702;28;20469;-67
2021/10/19 01:53:17;;;;;;;37.20;33.40;;;12.00;99.90;;;;;;5096476;28;20480;-68
2021/10/19 01:55:46;;;;;;;35.37;32.07;;;12.00;99.90;;;;;;5088808;28;20468;-69
2021/10/19 01:58:13;;;;;;;35.17;31.50;;;12.00;99.90;;;;;;5094827;28;20859;-69
2021/10/19 02:00:41;;;;;;;35.57;32.33;;;11.90;99.90;;;;;;5087832;28;20469;-68
2021/10/19 02:03:10;;;;;;;36.50;33.00;;;11.90;99.90;;;;;;5095690;28;20464;-68
2021/10/19 02:05:37;;;;;;;35.90;32.50;;;11.90;99.90;;;;;;5095888;28;20454;-69
2021/10/19 02:08:05;;;;;;;35.63;32.30;;;11.90;99.90;;;;;;5093217;28;21100;-70
2021/10/19 02:10:32;;;;;;;38.13;34.17;;;11.90;99.90;;;;;;5090897;28;20460;-71
2021/10/19 02:13:01;;;;;;;34.83;31.73;;;11.90;99.90;;;;;;5098903;28;20479;-70
2021/10/19 02:15:28;;;;;;;38.83;34.77;;;11.90;99.90;;;;;;5088676;28;20470;-70
2021/10/19 02:17:55;;;;;;;37.30;33.27;;;11.90;99.90;;;;;;5087025;28;20457;-69
2021/10/19 02:20:22;;;;;;;37.50;33.87;;;11.90;99.90;;;;;;5096876;28;21057;-68
2021/10/19 02:22:49;;;;;;;35.50;32.27;;;12.00;99.90;;;;;;5083374;28;20494;-68
2021/10/19 02:25:16;;;;;;;36.70;32.93;;;12.00;99.90;;;;;;5101140;28;20996;-68
2021/10/19 02:27:44;;;;;;;38.40;33.00;;;12.00;99.90;;;;;;5090936;28;20469;-68
2021/10/19 02:30:13;;;;;;;41.03;31.90;;;12.00;99.90;;;;;;5095489;28;20908;-70
2021/10/19 02:32:43;;;;;;;36.10;32.83;;;12.00;99.90;;;;;;5088837;28;20469;-69
2021/10/19 02:35:11;;;;;;;36.13;32.70;;;12.00;99.90;;;;;;5098653;28;20458;-68
2021/10/19 02:37:39;;;;;;;36.37;32.93;;;12.00;99.90;;;;;;5101196;28;20471;-70
2021/10/19 02:40:08;;;;;;;35.47;32.17;;;12.00;99.90;;;;;;5099786;28;20492;-68
2021/10/19 02:42:35;;;;;;;37.53;33.67;;;12.10;99.90;;;;;;5097978;28;20488;-68
2021/10/19 02:45:03;;;;;;;39.20;35.40;;;12.00;99.90;;;;;;5099559;28;20559;-70
2021/10/19 02:47:31;;;;;;;37.77;32.63;;;12.10;99.90;;;;;;5096350;28;20473;-68
2021/10/19 02:49:58;;;;;;;37.33;33.63;;;12.10;99.90;;;;;;5092736;28;20803;-68
2021/10/19 02:52:25;;;;;;;36.67;32.73;;;12.10;99.90;;;;;;5104494;28;20898;-69
2021/10/19 02:54:51;;;;;;;35.10;31.60;;;12.10;99.90;;;;;;5100089;28;20477;-69
2021/10/19 02:57:19;;;;;;;37.57;33.80;;;12.10;99.90;;;;;;5101570;28;20468;-68
2021/10/19 02:59:46;;;;;;;36.00;32.30;;;12.10;99.90;;;;;;5098867;28;20468;-71
2021/10/19 03:02:13;;;;;;;36.57;33.13;;;12.20;99.90;;;;;;5092957;28;20495;-68
2021/10/19 03:04:42;;;;;;;37.20;32.70;;;12.20;99.90;;;;;;5094722;28;20469;-70
2021/10/19 03:07:09;;;;;;;39.10;30.93;;;12.30;99.90;;;;;;5087731;28;20485;-68
2021/10/19 03:09:36;;;;;;;35.17;30.77;;;12.30;99.90;;;;;;5099974;28;20454;-69
2021/10/19 03:12:03;;;;;;;36.17;32.63;;;12.30;99.90;;;;;;5092385;28;20471;-69
2021/10/19 03:14:30;;;;;;;34.90;31.57;;;12.30;99.90;;;;;;5095974;28;20469;-69
2021/10/19 03:16:57;;;;;;;36.50;32.67;;;12.30;99.90;;;;;;5097716;28;20827;-69
2021/10/19 03:19:24;;;;;;;42.80;33.83;;;12.30;99.90;;;;;;5095907;28;20461;-68
2021/10/19 03:21:52;;;;;;;37.60;33.07;;;12.40;99.90;;;;;;5095207;28;21081;-71
2021/10/19 03:24:19;;;;;;;36.33;32.50;;;12.40;99.90;;;;;;5092186;28;21011;-70
2021/10/19 03:26:46;;;;;;;37.90;33.77;;;12.30;99.90;;;;;;5092573;28;20522;-68
2021/10/19 03:29:13;;;;;;;36.83;32.83;;;12.30;99.90;;;;;;5098250;28;20562;-70
2021/10/19 03:31:40;;;;;;;40.53;34.80;;;12.30;99.90;;;;;;5087561;28;21151;-69
2021/10/19 03:34:07;;;;;;;41.30;34.50;;;12.20;99.90;;;;;;5088087;28;20462;-69
2021/10/19 03:36:34;;;;;;;38.97;34.80;;;12.30;99.90;;;;;;5091684;28;20789;-69
2021/10/19 03:39:03;;;;;;;41.27;35.40;;;12.30;99.90;;;;;;5093955;28;20458;-69
2021/10/19 03:41:30;;;;;;;38.13;34.13;;;12.30;99.90;;;;;;5096032;28;20465;-69
2021/10/19 03:43:57;;;;;;;38.63;34.77;;;12.30;99.90;;;;;;5096343;28;20469;-68
2021/10/19 03:46:24;;;;;;;37.83;34.30;;;12.40;99.90;;;;;;5096600;28;20826;-70
2021/10/19 03:48:51;;;;;;;37.90;33.97;;;12.40;99.90;;;;;;5100115;28;20468;-71
2021/10/19 03:51:18;;;;;;;39.80;35.60;;;12.40;99.90;;;;;;5097686;28;20454;-69
2021/10/19 03:53:45;;;;;;;37.83;33.80;;;12.40;99.90;;;;;;5098290;28;20894;-68
2021/10/19 03:56:13;;;;;;;39.37;35.07;;;12.40;99.90;;;;;;5093869;28;20462;-69
2021/10/19 03:58:40;;;;;;;37.20;33.50;;;12.40;99.90;;;;;;5082845;28;20469;-69
2021/10/19 04:01:07;;;;;;;36.40;32.77;;;12.40;99.90;;;;;;5084659;28;20477;-70
2021/10/19 04:03:34;;;;;;;38.50;34.40;;;12.40;99.90;;;;;;5085216;28;20494;-70
2021/10/19 04:06:01;;;;;;;37.90;33.80;;;12.40;99.90;;;;;;5095420;28;20468;-68
2021/10/19 04:08:28;;;;;;;38.50;34.70;;;12.40;99.90;;;;;;5097255;28;20458;-69
2021/10/19 04:10:55;;;;;;;38.53;34.57;;;12.40;99.90;;;;;;5090302;28;20470;-68
2021/10/19 04:13:24;;;;;;;40.07;35.57;;;12.40;99.90;;;;;;5086107;28;20543;-70
2021/10/19 04:15:51;;;;;;;45.00;34.20;;;12.40;99.90;;;;;;5086637;28;20562;-68
2021/10/19 04:18:17;;;;;;;39.53;35.53;;;12.50;99.90;;;;;;5083970;28;20477;-70
2021/10/19 04:20:44;;;;;;;38.70;32.90;;;12.50;99.90;;;;;;5085162;28;20461;-69
2021/10/19 04:23:11;;;;;;;35.43;31.70;;;12.60;99.90;;;;;;5084047;28;20493;-70
2021/10/19 04:25:38;;;;;;;41.93;34.00;;;12.60;99.90;;;;;;5092896;28;20455;-69
2021/10/19 04:28:05;;;;;;;39.40;35.17;;;12.50;99.90;;;;;;5099891;28;20461;-68
2021/10/19 04:30:33;;;;;;;35.60;32.20;;;12.50;99.90;;;;;;5091350;28;21105;-70
2021/10/19 04:33:00;;;;;;;39.20;34.00;;;12.60;99.90;;;;;;5090748;28;20456;-68
2021/10/19 04:35:27;;;;;;;40.13;36.03;;;12.60;99.90;;;;;;5097625;28;20477;-69
2021/10/19 04:37:54;;;;;;;40.43;36.10;;;12.50;99.90;;;;;;5098818;28;20468;-69
2021/10/19 04:40:21;;;;;;;42.77;36.60;;;12.50;99.90;;;;;;5095792;28;20462;-69
2021/10/19 04:42:48;;;;;;;39.80;35.43;;;12.50;99.90;;;;;;5093648;28;20489;-71
2021/10/19 04:45:16;;;;;;;40.80;36.87;;;12.60;99.90;;;;;;5093481;28;20835;-68
2021/10/19 04:47:45;;;;;;;40.03;35.43;;;12.60;99.90;;;;;;5089065;28;20458;-68
2021/10/19 04:50:12;;;;;;;41.40;36.43;;;12.60;99.90;;;;;;5098489;28;20497;-69
2021/10/19 04:52:40;;;;;;;41.30;36.07;;;12.60;99.90;;;;;;5100167;28;20473;-68
2021/10/19 04:55:08;;;;;;;41.43;37.03;;;12.50;99.90;;;;;;5098324;28;20508;-70
2021/10/19 04:57:35;;;;;;;40.97;36.53;;;12.50;99.90;;;;;;5093726;28;20469;-68
2021/10/19 05:00:02;;;;;;;40.77;36.53;;;12.60;99.90;;;;;;5094018;28;20451;-69
2021/10/19 05:02:28;;;;;;;38.93;34.77;;;12.50;99.90;;;;;;5093907;28;20493;-70
2021/10/19 05:04:57;;;;;;;40.00;35.83;;;12.50;99.90;;;;;;5090298;28;20464;-69
2021/10/19 05:07:24;;;;;;;40.23;35.67;;;12.50;99.90;;;;;;5094651;28;20484;-69
2021/10/19 05:09:51;;;;;;;40.47;36.13;;;12.50;99.90;;;;;;5092795;28;20881;-69
2021/10/19 05:12:18;;;;;;;42.33;38.07;;;12.60;99.90;;;;;;5092498;28;20517;-69
2021/10/19 05:14:45;;;;;;;43.33;37.60;;;12.60;99.90;;;;;;5091260;28;20816;-69
2021/10/19 05:17:12;;;;;;;40.50;35.87;;;12.60;99.90;;;;;;5087867;28;20986;-70
2021/10/19 05:19:39;;;;;;;43.70;37.23;;;12.60;99.90;;;;;;5093405;28;20564;-70
2021/10/19 05:22:08;;;;;;;41.90;37.07;;;12.60;99.90;;;;;;5091187;28;20474;-69
2021/10/19 05:24:35;;;;;;;41.43;36.93;;;12.60;99.90;;;;;;5089395;28;20461;-69
2021/10/19 05:27:03;;;;;;;48.10;38.10;;;12.50;99.90;;;;;;5100267;28;21060;-69
2021/10/19 05:29:31;;;;;;;44.27;37.03;;;12.60;99.90;;;;;;5093622;28;20450;-69
2021/10/19 05:31:59;;;;;;;44.27;37.20;;;12.60;99.90;;;;;;5097440;28;20466;-69
2021/10/19 05:34:26;;;;;;;44.63;37.83;;;12.60;99.90;;;;;;5096824;28;20989;-70
2021/10/19 05:36:53;;;;;;;43.57;36.30;;;12.60;99.90;;;;;;5095657;28;20468;-68
2021/10/19 05:39:21;;;;;;;39.10;34.83;;;12.60;99.90;;;;;;5085201;28;20450;-69
2021/10/19 05:41:48;;;;;;;41.03;36.73;;;12.60;99.90;;;;;;5089299;28;20468;-69
2021/10/19 05:44:17;;;;;;;43.40;34.87;;;12.60;99.90;;;;;;5092565;28;20525;-69
2021/10/19 05:46:45;;;;;;;40.70;36.10;;;12.60;99.90;;;;;;5090991;28;20464;-69
2021/10/19 05:49:12;;;;;;;39.77;35.57;;;12.60;99.90;;;;;;5096601;28;20469;-69
2021/10/19 05:51:39;;;;;;;40.47;36.20;;;12.60;99.90;;;;;;5089103;28;20470;-69
2021/10/19 05:54:06;;;;;;;41.70;37.17;;;12.60;99.90;;;;;;5089272;28;20847;-71
2021/10/19 05:56:34;;;;;;;38.87;34.80;;;12.70;99.90;;;;;;5085649;28;20931;-69
2021/10/19 05:59:01;;;;;;;40.80;35.10;;;12.80;99.90;;;;;;5084229;28;20482;-69
2021/10/19 06:01:28;;;;;;;46.13;34.70;;;12.90;99.90;;;;;;5082888;28;20489;-70
2021/10/19 06:03:55;;;;;;;39.40;35.20;;;12.90;99.90;;;;;;5085472;28;20884;-69
2021/10/19 06:06:22;;;;;;;37.97;34.10;;;12.90;99.90;;;;;;5087112;28;20512;-69
2021/10/19 06:08:51;;;;;;;38.23;34.40;;;12.90;99.90;;;;;;5094821;28;20456;-69
2021/10/19 06:11:18;;;;;;;37.70;33.90;;;13.00;99.90;;;;;;5089260;28;20477;-69
2021/10/19 06:13:47;;;;;;;39.03;34.80;;;13.00;99.90;;;;;;5079284;28;20457;-71
2021/10/19 06:16:14;;;;;;;41.33;36.70;;;13.10;99.90;;;;;;5084817;28;20879;-71
2021/10/19 06:18:42;;;;;;;37.63;33.80;;;13.10;99.90;;;;;;5084816;28;20461;-70
2021/10/19 06:21:09;;;;;;;40.43;33.67;;;13.10;99.90;;;;;;5083896;28;20470;-70
2021/10/19 06:23:36;;;;;;;37.27;33.47;;;13.10;99.90;;;;;;5079428;28;20537;-70
2021/10/19 06:26:04;;;;;;;37.40;33.50;;;13.10;99.90;;;;;;5078772;28;20454;-70
2021/10/19 06:28:32;;;;;;;36.20;32.57;;;13.10;99.90;;;;;;5085768;28;21055;-69
2021/10/19 06:31:00;;;;;;;34.43;31.13;;;13.20;99.90;;;;;;5083604;28;20462;-70
2021/10/19 06:33:29;;;;;;;35.83;32.13;;;13.10;99.90;;;;;;5083256;28;20467;-72
2021/10/19 06:35:56;;;;;;;35.47;32.07;;;13.20;99.90;;;;;;5082955;28;20812;-70
2021/10/19 06:38:22;;;;;;;33.57;30.50;;;13.30;99.90;;;;;;5084900;28;20473;-70
2021/10/19 06:40:50;;;;;;;36.00;32.20;;;13.40;99.90;;;;;;5090541;28;20461;-71
2021/10/19 06:43:17;;;;;;;34.40;30.97;;;13.40;99.90;;;;;;5085960;28;20485;-71
2021/10/19 06:45:44;;;;;;;35.37;31.67;;;13.40;99.90;;;;;;5087126;28;20470;-70
2021/10/19 06:48:12;;;;;;;33.93;29.87;;;13.40;99.90;;;;;;5082502;28;20462;-70
2021/10/19 06:50:39;;;;;;;33.60;30.00;;;13.50;99.90;;;;;;5086205;28;20458;-69
2021/10/19 06:53:07;;;;;;;33.03;30.07;;;13.60;99.90;;;;;;5090872;28;20465;-72
2021/10/19 06:55:34;;;;;;;33.27;28.90;;;13.70;99.90;;;;;;5087665;28;20550;-70
2021/10/19 06:58:00;;;;;;;35.23;28.47;;;13.70;99.90;;;;;;5088357;28;20612;-69
2021/10/19 07:00:28;;;;;;;42.10;30.50;;;13.80;99.90;;;;;;5082652;28;20470;-70
2021/10/19 07:02:55;;;;;;;39.40;31.40;;;13.80;99.90;;;;;;5093426;28;20508;-69
2021/10/19 07:05:23;;;;;;;31.20;28.07;;;13.80;99.90;;;;;;5089238;28;20832;-71
2021/10/19 07:07:51;;;;;;;38.80;28.90;;;13.80;99.90;;;;;;5100408;28;20466;-71
2021/10/19 07:10:20;;;;;;;33.23;28.37;;;13.90;99.90;;;;;;5085635;28;20473;-70
2021/10/19 07:12:48;;;;;;;37.23;29.13;;;13.90;99.90;;;;;;5085942;28;20465;-69
2021/10/19 07:15:16;;;;;;;41.37;28.70;;;13.90;99.90;;;;;;5091382;28;20489;-69
2021/10/19 07:17:43;;;;;;;32.47;29.03;;;13.90;99.90;;;;;;5091448;28;20963;-70
2021/10/19 07:20:12;;;;;;;30.23;26.87;;;14.00;99.90;;;;;;5095819;28;20458;-71
2021/10/19 07:22:41;;;;;;;34.50;27.87;;;14.00;99.90;;;;;;5097312;28;20839;-69
2021/10/19 07:25:11;;;;;;;30.57;27.43;;;14.20;99.90;;;;;;5086257;28;20819;-68
2021/10/19 07:27:38;;;;;;;32.17;29.07;;;14.20;99.90;;;;;;5080779;28;20451;-68
2021/10/19 07:30:06;;;;;;;35.70;29.07;;;14.30;99.90;;;;;;5082422;28;20516;-70
2021/10/19 07:32:34;;;;;;;34.50;29.90;;;14.40;99.90;;;;;;5078730;28;21003;-70
2021/10/19 07:35:40;;;;;;;59.97;42.80;;;14.40;99.90;;;;;;5081777;28;20854;-68
2021/10/19 07:38:09;;;;;;;63.40;46.63;;;14.50;99.90;;;;;;5075504;28;20742;-69
2021/10/19 07:40:36;;;;;;;42.03;37.37;;;14.60;99.90;;;;;;5084680;28;20550;-68
2021/10/19 07:43:03;;;;;;;53.07;41.23;;;14.70;99.90;;;;;;5084689;28;20982;-70
2021/10/19 07:45:30;;;;;;;50.90;39.47;;;14.80;99.90;;;;;;5083063;28;20536;-69
2021/10/19 07:48:00;;;;;;;41.60;33.47;;;15.00;99.90;;;;;;5086206;28;20783;-70
2021/10/19 07:50:29;;;;;;;45.43;38.87;;;15.10;99.90;;;;;;5087843;28;20493;-68
2021/10/19 07:52:56;;;;;;;23.50;21.57;;;15.30;99.90;;;;;;5083922;28;20489;-70
2021/10/19 07:55:27;;;;;;;23.10;21.50;;;15.40;99.90;;;;;;5082582;28;21124;-69
2021/10/19 07:57:54;;;;;;;21.10;19.70;;;15.50;99.90;;;;;;5086056;28;20484;-69
2021/10/19 08:00:24;;;;;;;19.80;18.60;;;15.50;99.90;;;;;;5082531;28;20462;-68
2021/10/19 08:02:51;;;;;;;20.60;18.87;;;15.60;99.90;;;;;;5088931;28;20465;-69
2021/10/19 08:05:18;;;;;;;19.40;18.20;;;15.70;99.90;;;;;;5085402;28;21338;-69
2021/10/19 08:07:47;;;;;;;20.63;19.30;;;15.70;99.90;;;;;;5082752;28;20466;-69
2021/10/19 08:10:16;;;;;;;21.00;19.27;;;15.70;99.90;;;;;;5079029;28;20473;-69
2021/10/19 08:12:44;;;;;;;20.20;19.07;;;15.80;99.90;;;;;;5080395;28;20799;-71
2021/10/19 08:15:12;;;;;;;20.30;18.90;;;15.80;99.90;;;;;;5078898;28;20783;-69
2021/10/19 08:17:39;;;;;;;20.43;19.10;;;15.90;99.90;;;;;;5081848;28;20462;-68
2021/10/19 08:20:08;;;;;;;19.57;18.47;;;15.90;99.90;;;;;;5093483;28;20506;-71
2021/10/19 08:22:35;;;;;;;19.87;18.67;;;16.00;99.90;;;;;;5098858;28;20489;-69
2021/10/19 08:25:06;;;;;;;19.40;18.30;;;16.10;99.90;;;;;;5093125;28;20489;-69
2021/10/19 08:27:34;;;;;;;19.90;18.80;;;16.10;99.90;;;;;;5082531;28;20465;-70
2021/10/19 08:30:03;;;;;;;19.00;18.00;;;16.20;99.90;;;;;;5101684;28;20493;-69
2021/10/19 08:32:30;;;;;;;18.03;17.03;;;16.20;99.90;;;;;;5092698;28;21092;-70
2021/10/19 08:35:41;;;;;;;18.10;17.10;;;16.30;99.90;;;;;;5088846;28;20462;-69
2021/10/19 08:45:15;;;;;;;16.87;15.87;;;16.50;99.90;;;;;;4765389;29;20491;-69
2021/10/19 08:48:11;;;;;;;16.07;15.17;;;16.60;99.90;;;;;;4790495;29;20492;-69
2021/10/19 08:51:08;;;;;;;15.73;14.83;;;16.50;99.90;;;;;;4851377;29;20479;-69
2021/10/19 08:54:05;;;;;;;16.07;15.07;;;16.50;99.90;;;;;;4970356;28;20584;-69
2021/10/19 09:02:54;;;;;;;18.83;17.73;;;16.70;99.90;;;;;;4881887;29;20496;-68
2021/10/19 09:05:55;;;;;;;18.57;17.47;;;16.70;99.90;;;;;;4881379;29;20511;-68
2021/10/19 09:21:06;;;;;;;19.03;17.93;;;16.60;99.90;;;;;;4880116;29;20543;-70
2021/10/19 09:29:56;;;;;;;19.07;17.83;;;16.60;99.90;;;;;;4923879;28;20473;-68
2021/10/19 09:32:23;;;;;;;18.90;17.80;;;16.60;99.90;;;;;;5008819;28;20465;-71
2021/10/19 09:34:50;;;;;;;20.03;18.60;;;16.40;99.90;;;;;;5082050;28;20567;-70
2021/10/19 09:37:20;;;;;;;20.20;19.00;;;16.50;99.90;;;;;;5094173;28;20959;-69
2021/10/19 09:39:50;;;;;;;19.33;17.60;;;16.50;99.90;;;;;;5082035;28;20470;-69
2021/10/19 09:42:20;;;;;;;17.97;17.07;;;16.60;99.90;;;;;;5087352;28;21851;-71
2021/10/19 09:44:53;;;;;;;17.47;16.20;;;16.60;99.90;;;;;;5092904;28;20501;-70
2021/10/19 09:47:21;;;;;;;16.70;15.70;;;16.60;99.90;;;;;;5082710;28;20481;-72
2021/10/19 09:49:48;;;;;;;17.60;16.40;;;16.40;99.90;;;;;;5089627;28;20466;-69
2021/10/19 09:52:15;;;;;;;16.27;15.47;;;16.60;99.90;;;;;;5089842;28;20501;-70
2021/10/19 09:54:43;;;;;;;17.77;16.43;;;16.50;99.90;;;;;;5090519;28;20477;-70
2021/10/19 09:57:12;;;;;;;17.10;16.20;;;16.60;99.90;;;;;;5084440;28;21240;-70
2021/10/19 09:59:40;;;;;;;17.10;16.00;;;16.70;99.90;;;;;;5086494;28;20461;-70
2021/10/19 10:02:12;;;;;;;16.93;15.90;;;16.70;99.90;;;;;;5084975;28;20465;-72
2021/10/19 10:04:40;;;;;;;17.13;15.80;;;16.70;99.90;;;;;;5091620;28;20493;-70
2021/10/19 10:07:08;;;;;;;16.40;15.60;;;16.70;99.90;;;;;;5085244;28;20821;-70
2021/10/19 10:09:36;;;;;;;17.00;16.10;;;16.70;99.90;;;;;;5091646;28;20463;-71
2021/10/19 10:12:06;;;;;;;16.83;15.93;;;16.90;99.90;;;;;;5088293;28;20470;-70
2021/10/19 10:14:41;;;;;;;16.97;15.97;;;16.80;99.90;;;;;;5098494;28;20457;-70
2021/10/19 10:17:09;;;;;;;16.90;16.10;;;16.90;99.90;;;;;;5092486;28;20638;-71
2021/10/19 10:19:37;;;;;;;17.33;16.30;;;17.00;99.90;;;;;;5092359;28;20554;-70
2021/10/19 10:22:15;;;;;;;16.70;15.90;;;17.00;99.90;;;;;;5086345;28;20454;-69
2021/10/19 10:24:42;;;;;;;18.13;17.20;;;17.00;99.90;;;;;;5093344;28;20488;-69
2021/10/19 10:27:12;;;;;;;16.93;16.03;;;17.10;99.90;;;;;;5090590;28;20462;-70
2021/10/19 10:29:42;;;;;;;17.00;16.17;;;17.00;99.90;;;;;;5087984;28;20541;-70
2021/10/19 10:32:23;;;;;;;17.07;16.00;;;17.00;99.90;;;;;;5085148;28;20539;-70
2021/10/19 10:35:05;;;;;;;16.40;15.60;;;17.10;99.90;;;;;;5094992;28;20466;-72
2021/10/19 10:37:41;;;;;;;16.50;15.60;;;17.00;99.90;;;;;;5084888;28;20537;-70
2021/10/19 10:40:11;;;;;;;16.33;15.50;;;17.10;99.90;;;;;;5085749;28;20978;-71
2021/10/19 10:42:39;;;;;;;15.83;15.00;;;17.10;99.90;;;;;;5089389;28;20465;-70
2021/10/19 10:45:17;;;;;;;15.23;14.50;;;17.10;99.90;;;;;;5090515;28;21116;-70
2021/10/19 10:47:46;;;;;;;15.17;14.37;;;17.20;99.90;;;;;;5089298;28;20465;-69
2021/10/19 10:50:14;;;;;;;15.07;14.13;;;17.30;99.90;;;;;;5098499;28;20453;-69
2021/10/19 10:52:43;;;;;;;15.60;14.60;;;17.20;99.90;;;;;;5095201;28;21295;-69
2021/10/19 10:55:14;;;;;;;15.53;14.63;;;17.40;99.90;;;;;;5090326;28;20854;-69
2021/10/19 10:57:44;;;;;;;17.27;15.90;;;17.50;99.90;;;;;;5096751;28;21231;-70
2021/10/19 11:00:13;;;;;;;16.27;15.07;;;17.60;99.90;;;;;;5088483;28;20461;-71
2021/10/19 11:02:40;;;;;;;16.23;15.17;;;17.70;99.90;;;;;;5074462;28;20458;-68
2021/10/19 11:05:07;;;;;;;17.53;16.33;;;18.00;99.90;;;;;;5099603;28;21010;-72
2021/10/19 11:07:37;;;;;;;16.60;15.70;;;18.20;99.90;;;;;;5088863;28;20460;-69
2021/10/19 11:10:11;;;;;;;17.67;16.57;;;18.50;99.90;;;;;;5087570;28;21027;-70
2021/10/19 11:12:38;;;;;;;18.13;17.03;;;18.80;99.90;;;;;;5086472;28;20472;-70
2021/10/19 11:15:14;;;;;;;18.00;17.00;;;18.90;99.90;;;;;;5084976;28;20552;-69
2021/10/19 11:17:46;;;;;;;18.03;17.03;;;19.00;99.90;;;;;;5088100;28;20500;-70
2021/10/19 11:20:12;;;;;;;17.63;16.43;;;19.10;99.90;;;;;;5093086;28;20465;-71
2021/10/19 11:22:40;;;;;;;17.67;16.67;;;19.30;99.90;;;;;;5086353;28;21079;-69
2021/10/19 11:25:10;;;;;;;19.27;18.07;;;19.30;99.90;;;;;;5080413;28;20525;-69
2021/10/19 11:27:39;;;;;;;18.60;17.37;;;19.10;99.90;;;;;;5085515;28;21125;-70
2021/10/19 11:30:08;;;;;;;17.93;16.70;;;19.20;99.90;;;;;;5091205;28;20465;-70
2021/10/19 11:32:35;;;;;;;18.13;17.03;;;19.20;99.90;;;;;;5084146;28;20465;-71
2021/10/19 11:35:03;;;;;;;18.07;17.03;;;19.10;99.90;;;;;;5091436;28;20473;-70
2021/10/19 11:37:30;;;;;;;18.67;17.47;;;19.00;99.90;;;;;;5094581;28;20899;-71
2021/10/19 11:40:05;;;;;;;18.00;16.60;;;19.10;99.90;;;;;;5098896;28;20466;-69
2021/10/19 11:42:47;;;;;;;17.97;16.77;;;19.30;99.90;;;;;;5094035;28;20994;-70
2021/10/19 11:45:16;;;;;;;16.47;15.37;;;19.50;99.90;;;;;;5089645;28;20848;-69
2021/10/19 11:47:48;;;;;;;16.97;15.77;;;19.90;99.90;;;;;;5090712;28;20462;-69
2021/10/19 11:50:18;;;;;;;16.97;16.07;;;19.90;99.90;;;;;;5089525;28;20456;-71
2021/10/19 11:52:45;;;;;;;18.73;17.23;;;19.90;99.90;;;;;;5096011;28;20986;-69
2021/10/19 11:55:14;;;;;;;16.50;15.50;;;19.90;99.90;;;;;;5093293;28;20485;-72
2021/10/19 11:57:42;;;;;;;16.53;15.43;;;19.80;99.90;;;;;;5094906;28;20471;-69
2021/10/19 12:00:12;;;;;;;17.20;16.20;;;19.90;99.90;;;;;;5086607;28;20469;-71
2021/10/19 12:02:48;;;;;;;16.63;15.53;;;19.70;99.90;;;;;;5084864;28;20454;-72
2021/10/19 12:05:15;;;;;;;16.60;15.50;;;19.40;99.90;;;;;;5090496;28;20588;-69
2021/10/19 12:07:49;;;;;;;16.43;15.27;;;19.30;99.90;;;;;;5099420;28;20462;-68
2021/10/19 12:10:19;;;;;;;16.50;15.40;;;19.30;99.90;;;;;;5097981;28;20457;-69
2021/10/19 12:13:04;;;;;;;16.00;15.00;;;19.10;99.90;;;;;;5092062;28;21280;-72
2021/10/19 12:15:33;;;;;;;15.97;14.87;;;19.20;99.90;;;;;;5093553;28;20503;-68
2021/10/19 12:18:01;;;;;;;15.97;14.87;;;19.20;99.90;;;;;;5091265;28;20489;-69
2021/10/19 12:20:31;;;;;;;15.83;14.83;;;19.20;99.90;;;;;;5098113;28;20457;-69
2021/10/19 12:22:59;;;;;;;15.47;14.47;;;19.30;99.90;;;;;;5088199;28;20851;-70
2021/10/19 12:25:27;;;;;;;15.73;14.80;;;19.30;99.90;;;;;;5085937;28;20489;-68
2021/10/19 12:27:57;;;;;;;15.10;14.00;;;19.30;99.90;;;;;;5081425;28;20940;-69
2021/10/19 12:30:26;;;;;;;15.40;14.00;;;19.50;99.90;;;;;;5088701;28;20458;-69
2021/10/19 12:32:56;;;;;;;14.50;13.70;;;19.60;99.90;;;;;;5086505;28;20468;-70
2021/10/19 12:35:26;;;;;;;13.77;12.77;;;19.60;99.90;;;;;;5087206;28;20464;-69
2021/10/19 12:37:53;;;;;;;14.00;13.17;;;19.80;99.90;;;;;;5091866;28;20467;-71
2021/10/19 12:40:22;;;;;;;14.53;13.50;;;19.80;99.90;;;;;;5091225;28;21214;-72
2021/10/19 12:42:50;;;;;;;15.23;14.33;;;19.80;99.90;;;;;;5090895;28;21040;-68
2021/10/19 12:45:17;;;;;;;14.53;13.63;;;19.90;99.90;;;;;;5090585;28;20820;-69
2021/10/19 12:47:45;;;;;;;14.50;13.70;;;19.90;99.90;;;;;;5088309;28;20979;-69
2021/10/19 12:50:12;;;;;;;14.40;13.50;;;20.00;99.90;;;;;;5100017;28;20489;-69
2021/10/19 12:52:39;;;;;;;14.60;13.60;;;20.00;99.90;;;;;;5092870;28;20461;-71
2021/10/19 12:55:07;;;;;;;14.40;13.50;;;20.10;99.90;;;;;;5091458;28;21265;-69
2021/10/19 12:57:33;;;;;;;14.43;13.37;;;20.10;99.90;;;;;;5099743;28;20472;-69
2021/10/19 13:00:00;;;;;;;14.27;13.33;;;20.10;99.90;;;;;;5096694;28;20473;-69
2021/10/19 13:02:27;;;;;;;15.17;14.37;;;20.10;99.90;;;;;;5089076;28;20454;-69
2021/10/19 13:04:55;;;;;;;16.20;14.67;;;20.10;99.90;;;;;;5090901;28;20516;-69
2021/10/19 13:07:23;;;;;;;14.50;13.63;;;20.40;99.90;;;;;;5087155;28;20466;-70
2021/10/19 13:09:50;;;;;;;15.30;14.10;;;20.30;99.90;;;;;;5094526;28;20519;-70